Terminal Aerodrome Forecast
Issued by NWS Cleveland, OH

Home | Current Version | Previous Version | Text Only | Print | Product List | Glossary On
Versions: 1 2 3 4 5 6 7 8 9 10 11 12 13 14 15 16 17 18 19 20
890
FTUS41 KCLE 211131
TAFCLE
TAF
KCLE 211131Z 2112/2218 15004KT P6SM SCT250
     FM211700 01007KT P6SM BKN200
     FM220200 08004KT P6SM SCT120 BKN200=

USA.gov is the U.S. government's official web portal to all federal, state and local government web resources and services.